This is the latest recevied weather packets stored in our database for station/object KQ7A. If no packets are shown the sender has not sent any weather packets the latest 1 day(s).
| Time | Temp. | Humidity | Pressure | Rain* | Wind** | Luminosity | Snow |
|---|---|---|---|---|---|---|---|
| 1778033332 | 12.78° C | 70% | 1014.1 hPa | 0 mm | - | 24 W/m² | - |
| 1778033031 | 12.78° C | 70% | 1014 hPa | 0 mm | - | 26 W/m² | - |
| 1778032728 | 12.78° C | 69% | 1014.1 hPa | 0 mm | - | 27 W/m² | - |
| 1778032122 | 12.78° C | 70% | 1013.8 hPa | 0 mm | - | 30 W/m² | - |
| 1778031819 | 13.33° C | 67% | 1013.8 hPa | 0 mm | - | 32 W/m² | - |
| 1778031515 | 13.33° C | 67% | 1014 hPa | 0 mm | - | 34 W/m² | - |
| 1778031213 | 13.89° C | 69% | 1014.1 hPa | 0 mm | - | 35 W/m² | - |
| 1778030909 | 13.89° C | 65% | 1013.9 hPa | 0 mm | - | 38 W/m² | - |
| 1778030606 | 14.44° C | 65% | 1014.3 hPa | 0 mm | - | 39 W/m² | - |
| 1778030000 | 18.33° C | 53% | 1013.9 hPa | 0 mm | - | 177 W/m² | - |
| 1778029697 | 19.44° C | 49% | 1014.1 hPa | 0 mm | - | 188 W/m² | - |
| 1778029395 | 18.33° C | 55% | 1013.9 hPa | 0 mm | - | 55 W/m² | - |
| 1778029092 | 17.78° C | 53% | 1014.1 hPa | 0 mm | - | 225 W/m² | - |
| 1778028789 | 17.78° C | 46% | 1014 hPa | 0 mm | - | 238 W/m² | - |
| 1778028183 | 18.89° C | 46% | 1014.1 hPa | 0 mm | - | 278 W/m² | - |
| 1778027575 | 18.89° C | 43% | 1013.9 hPa | 0 mm | - | 320 W/m² | - |
| 1778027271 | 19.44° C | 40% | 1014 hPa | 0 mm | - | 331 W/m² | - |
| 1778026058 | 18.89° C | 46% | 1014 hPa | 0 mm | - | 401 W/m² | - |
| 1778023939 | 18.33° C | 46% | 1014.3 hPa | 0 mm | - | 502 W/m² | - |
| 1778021819 | 18.33° C | 53% | 1014.7 hPa | 0 mm | - | 622 W/m² | - |
| 1778021516 | 17.78° C | 50% | 1014.6 hPa | 0 mm | - | 648 W/m² | - |
| 1778019993 | 17.22° C | 54% | 1014.7 hPa | 0 mm | - | 658 W/m² | - |
| 1778018781 | 16.67° C | 51% | 1014.8 hPa | 0 mm | - | 632 W/m² | - |
* Rain latest hour (hover to see other rain measurements)
** Current wind speed in m/s (hover to see current wind gust speed)